sensor_id;sensor_type;location;lat;lon;timestamp;P1;durP1;ratioP1;P2;durP2;ratioP2
77262;SDS011;66373;52.334;4.806;2023-06-22T00:00:08;16.50;;;10.45;;
77262;SDS011;66373;52.334;4.806;2023-06-22T00:02:40;17.92;;;11.30;;
77262;SDS011;66373;52.334;4.806;2023-06-22T00:05:07;20.92;;;11.88;;
77262;SDS011;66373;52.334;4.806;2023-06-22T00:07:34;16.73;;;11.15;;
77262;SDS011;66373;52.334;4.806;2023-06-22T00:10:05;20.25;;;11.55;;
77262;SDS011;66373;52.334;4.806;2023-06-22T00:12:33;20.58;;;12.20;;
77262;SDS011;66373;52.334;4.806;2023-06-22T00:14:59;19.45;;;12.00;;
77262;SDS011;66373;52.334;4.806;2023-06-22T00:17:28;16.52;;;11.43;;
77262;SDS011;66373;52.334;4.806;2023-06-22T00:19:55;17.77;;;11.43;;
77262;SDS011;66373;52.334;4.806;2023-06-22T00:22:24;15.50;;;10.50;;
77262;SDS011;66373;52.334;4.806;2023-06-22T00:24:54;17.92;;;11.43;;
77262;SDS011;66373;52.334;4.806;2023-06-22T00:27:21;19.13;;;10.52;;
77262;SDS011;66373;52.334;4.806;2023-06-22T00:29:48;19.15;;;10.40;;
77262;SDS011;66373;52.334;4.806;2023-06-22T00:32:16;14.45;;;9.90;;
77262;SDS011;66373;52.334;4.806;2023-06-22T00:34:47;13.10;;;9.68;;
77262;SDS011;66373;52.334;4.806;2023-06-22T00:37:15;14.65;;;10.38;;
77262;SDS011;66373;52.334;4.806;2023-06-22T00:39:43;13.32;;;9.68;;
77262;SDS011;66373;52.334;4.806;2023-06-22T00:42:10;13.38;;;9.75;;
77262;SDS011;66373;52.334;4.806;2023-06-22T00:44:37;11.65;;;9.25;;
77262;SDS011;66373;52.334;4.806;2023-06-22T00:47:04;15.75;;;9.77;;
77262;SDS011;66373;52.334;4.806;2023-06-22T00:49:32;15.20;;;9.60;;
77262;SDS011;66373;52.334;4.806;2023-06-22T00:52:01;15.80;;;10.18;;
77262;SDS011;66373;52.334;4.806;2023-06-22T00:54:29;15.65;;;11.02;;
77262;SDS011;66373;52.334;4.806;2023-06-22T00:56:56;18.02;;;11.93;;
77262;SDS011;66373;52.334;4.806;2023-06-22T00:59:24;16.75;;;11.40;;
77262;SDS011;66373;52.334;4.806;2023-06-22T01:01:52;17.83;;;11.93;;
77262;SDS011;66373;52.334;4.806;2023-06-22T01:04:19;17.25;;;11.80;;
77262;SDS011;66373;52.334;4.806;2023-06-22T01:06:51;15.45;;;10.85;;
77262;SDS011;66373;52.334;4.806;2023-06-22T01:09:32;20.83;;;11.23;;
77262;SDS011;66373;52.334;4.806;2023-06-22T01:12:05;20.13;;;11.48;;
77262;SDS011;66373;52.334;4.806;2023-06-22T01:14:37;16.40;;;11.48;;
77262;SDS011;66373;52.334;4.806;2023-06-22T01:17:08;17.38;;;11.88;;
77262;SDS011;66373;52.334;4.806;2023-06-22T01:19:45;19.38;;;11.68;;
77262;SDS011;66373;52.334;4.806;2023-06-22T01:22:17;16.67;;;11.10;;
77262;SDS011;66373;52.334;4.806;2023-06-22T01:24:51;13.05;;;11.05;;
77262;SDS011;66373;52.334;4.806;2023-06-22T01:27:28;16.60;;;11.73;;
77262;SDS011;66373;52.334;4.806;2023-06-22T01:30:09;18.73;;;11.45;;
77262;SDS011;66373;52.334;4.806;2023-06-22T01:32:38;16.58;;;11.90;;
77262;SDS011;66373;52.334;4.806;2023-06-22T01:35:07;17.25;;;12.00;;
77262;SDS011;66373;52.334;4.806;2023-06-22T01:37:36;20.40;;;12.05;;
77262;SDS011;66373;52.334;4.806;2023-06-22T01:40:04;15.13;;;11.70;;
77262;SDS011;66373;52.334;4.806;2023-06-22T01:42:33;17.02;;;11.30;;
77262;SDS011;66373;52.334;4.806;2023-06-22T01:45:02;14.93;;;11.20;;
77262;SDS011;66373;52.334;4.806;2023-06-22T01:47:31;15.93;;;10.90;;
77262;SDS011;66373;52.334;4.806;2023-06-22T01:49:59;18.05;;;11.57;;
77262;SDS011;66373;52.334;4.806;2023-06-22T01:52:27;17.58;;;11.70;;
77262;SDS011;66373;52.334;4.806;2023-06-22T01:54:57;16.00;;;11.05;;
77262;SDS011;66373;52.334;4.806;2023-06-22T01:57:26;16.13;;;11.57;;
77262;SDS011;66373;52.334;4.806;2023-06-22T01:59:57;14.57;;;11.50;;
77262;SDS011;66373;52.334;4.806;2023-06-22T02:02:28;17.15;;;11.93;;
77262;SDS011;66373;52.334;4.806;2023-06-22T02:05:03;16.83;;;11.32;;
77262;SDS011;66373;52.334;4.806;2023-06-22T02:07:34;15.77;;;10.93;;
77262;SDS011;66373;52.334;4.806;2023-06-22T02:10:08;19.33;;;11.55;;
77262;SDS011;66373;52.334;4.806;2023-06-22T02:12:38;21.98;;;11.63;;
77262;SDS011;66373;52.334;4.806;2023-06-22T02:15:09;15.60;;;11.43;;
77262;SDS011;66373;52.334;4.806;2023-06-22T02:17:39;19.58;;;11.50;;
77262;SDS011;66373;52.334;4.806;2023-06-22T02:20:12;15.27;;;11.38;;
77262;SDS011;66373;52.334;4.806;2023-06-22T02:22:39;19.00;;;11.10;;
77262;SDS011;66373;52.334;4.806;2023-06-22T02:25:10;18.27;;;12.05;;
77262;SDS011;66373;52.334;4.806;2023-06-22T02:27:38;18.70;;;11.15;;
77262;SDS011;66373;52.334;4.806;2023-06-22T02:30:07;17.85;;;11.77;;
77262;SDS011;66373;52.334;4.806;2023-06-22T02:32:36;15.00;;;11.18;;
77262;SDS011;66373;52.334;4.806;2023-06-22T02:35:09;16.35;;;11.13;;
77262;SDS011;66373;52.334;4.806;2023-06-22T02:37:36;20.90;;;11.40;;
77262;SDS011;66373;52.334;4.806;2023-06-22T02:40:07;18.98;;;12.25;;
77262;SDS011;66373;52.334;4.806;2023-06-22T02:42:35;19.80;;;11.93;;
77262;SDS011;66373;52.334;4.806;2023-06-22T02:45:03;18.40;;;11.70;;
77262;SDS011;66373;52.334;4.806;2023-06-22T02:47:30;21.08;;;12.00;;
77262;SDS011;66373;52.334;4.806;2023-06-22T02:49:59;17.83;;;12.75;;
77262;SDS011;66373;52.334;4.806;2023-06-22T02:52:27;21.83;;;14.68;;
77262;SDS011;66373;52.334;4.806;2023-06-22T02:54:54;18.67;;;13.00;;
77262;SDS011;66373;52.334;4.806;2023-06-22T02:57:21;18.45;;;12.20;;
77262;SDS011;66373;52.334;4.806;2023-06-22T03:02:37;21.67;;;12.77;;
77262;SDS011;66373;52.334;4.806;2023-06-22T03:05:05;18.45;;;12.70;;
77262;SDS011;66373;52.334;4.806;2023-06-22T03:07:34;16.90;;;12.02;;
77262;SDS011;66373;52.334;4.806;2023-06-22T03:10:02;18.65;;;12.95;;
77262;SDS011;66373;52.334;4.806;2023-06-22T03:12:30;18.52;;;12.32;;
77262;SDS011;66373;52.334;4.806;2023-06-22T03:14:57;16.08;;;12.02;;
77262;SDS011;66373;52.334;4.806;2023-06-22T03:17:24;19.52;;;12.75;;
77262;SDS011;66373;52.334;4.806;2023-06-22T03:19:51;21.17;;;12.85;;
77262;SDS011;66373;52.334;4.806;2023-06-22T03:22:18;19.88;;;12.93;;
77262;SDS011;66373;52.334;4.806;2023-06-22T03:24:47;17.73;;;12.65;;
77262;SDS011;66373;52.334;4.806;2023-06-22T03:27:14;22.98;;;12.73;;
77262;SDS011;66373;52.334;4.806;2023-06-22T03:29:41;19.70;;;13.50;;
77262;SDS011;66373;52.334;4.806;2023-06-22T03:32:10;20.02;;;14.32;;
77262;SDS011;66373;52.334;4.806;2023-06-22T03:34:37;19.15;;;13.50;;
77262;SDS011;66373;52.334;4.806;2023-06-22T03:37:04;18.30;;;12.55;;
77262;SDS011;66373;52.334;4.806;2023-06-22T03:39:32;17.48;;;12.98;;
77262;SDS011;66373;52.334;4.806;2023-06-22T03:42:00;19.35;;;13.05;;
77262;SDS011;66373;52.334;4.806;2023-06-22T03:44:27;18.83;;;12.77;;
77262;SDS011;66373;52.334;4.806;2023-06-22T03:46:55;19.13;;;12.55;;
77262;SDS011;66373;52.334;4.806;2023-06-22T03:49:22;20.20;;;13.60;;
77262;SDS011;66373;52.334;4.806;2023-06-22T03:51:49;18.60;;;13.13;;
77262;SDS011;66373;52.334;4.806;2023-06-22T03:54:16;17.70;;;12.95;;
77262;SDS011;66373;52.334;4.806;2023-06-22T03:56:43;19.95;;;13.90;;
77262;SDS011;66373;52.334;4.806;2023-06-22T03:59:11;19.60;;;13.25;;
77262;SDS011;66373;52.334;4.806;2023-06-22T04:01:38;20.17;;;14.15;;
77262;SDS011;66373;52.334;4.806;2023-06-22T04:04:05;18.52;;;13.85;;
77262;SDS011;66373;52.334;4.806;2023-06-22T04:06:32;19.63;;;12.45;;
77262;SDS011;66373;52.334;4.806;2023-06-22T04:09:00;17.90;;;12.98;;
77262;SDS011;66373;52.334;4.806;2023-06-22T04:11:27;19.02;;;13.38;;
77262;SDS011;66373;52.334;4.806;2023-06-22T04:13:54;21.80;;;13.82;;
77262;SDS011;66373;52.334;4.806;2023-06-22T04:16:23;17.48;;;13.35;;
77262;SDS011;66373;52.334;4.806;2023-06-22T04:18:50;18.00;;;13.65;;
77262;SDS011;66373;52.334;4.806;2023-06-22T04:21:17;18.15;;;12.95;;
77262;SDS011;66373;52.334;4.806;2023-06-22T04:23:44;17.50;;;12.00;;
77262;SDS011;66373;52.334;4.806;2023-06-22T04:26:12;17.67;;;13.18;;
77262;SDS011;66373;52.334;4.806;2023-06-22T04:28:40;19.33;;;12.50;;
77262;SDS011;66373;52.334;4.806;2023-06-22T04:31:07;18.38;;;12.00;;
77262;SDS011;66373;52.334;4.806;2023-06-22T04:33:36;18.25;;;11.52;;
77262;SDS011;66373;52.334;4.806;2023-06-22T04:36:03;20.33;;;13.45;;
77262;SDS011;66373;52.334;4.806;2023-06-22T04:38:30;18.05;;;12.82;;
77262;SDS011;66373;52.334;4.806;2023-06-22T04:40:59;23.08;;;13.18;;
77262;SDS011;66373;52.334;4.806;2023-06-22T04:43:27;18.35;;;12.13;;
77262;SDS011;66373;52.334;4.806;2023-06-22T04:45:55;16.10;;;12.50;;
77262;SDS011;66373;52.334;4.806;2023-06-22T04:48:28;17.90;;;12.85;;
77262;SDS011;66373;52.334;4.806;2023-06-22T04:50:59;17.00;;;11.57;;
77262;SDS011;66373;52.334;4.806;2023-06-22T04:53:29;19.50;;;12.02;;
77262;SDS011;66373;52.334;4.806;2023-06-22T04:55:56;17.25;;;11.88;;
77262;SDS011;66373;52.334;4.806;2023-06-22T04:58:23;19.92;;;13.27;;
77262;SDS011;66373;52.334;4.806;2023-06-22T05:00:54;16.08;;;12.13;;
77262;SDS011;66373;52.334;4.806;2023-06-22T05:03:22;16.77;;;11.82;;
77262;SDS011;66373;52.334;4.806;2023-06-22T05:05:52;18.25;;;12.18;;
77262;SDS011;66373;52.334;4.806;2023-06-22T05:08:21;15.68;;;11.25;;
77262;SDS011;66373;52.334;4.806;2023-06-22T05:10:51;15.98;;;12.00;;
77262;SDS011;66373;52.334;4.806;2023-06-22T05:13:18;18.92;;;11.55;;
77262;SDS011;66373;52.334;4.806;2023-06-22T05:15:50;16.35;;;11.32;;
77262;SDS011;66373;52.334;4.806;2023-06-22T05:18:17;17.95;;;12.40;;
77262;SDS011;66373;52.334;4.806;2023-06-22T05:20:52;16.98;;;11.43;;
77262;SDS011;66373;52.334;4.806;2023-06-22T05:23:20;17.50;;;11.68;;
77262;SDS011;66373;52.334;4.806;2023-06-22T05:25:48;15.98;;;10.77;;
77262;SDS011;66373;52.334;4.806;2023-06-22T05:28:15;19.80;;;11.50;;
77262;SDS011;66373;52.334;4.806;2023-06-22T05:30:42;18.08;;;11.10;;
77262;SDS011;66373;52.334;4.806;2023-06-22T05:33:09;18.20;;;10.70;;
77262;SDS011;66373;52.334;4.806;2023-06-22T05:35:36;14.65;;;9.93;;
77262;SDS011;66373;52.334;4.806;2023-06-22T05:38:03;15.52;;;10.90;;
77262;SDS011;66373;52.334;4.806;2023-06-22T05:40:32;21.15;;;10.95;;
77262;SDS011;66373;52.334;4.806;2023-06-22T05:42:59;15.13;;;10.32;;
77262;SDS011;66373;52.334;4.806;2023-06-22T05:45:27;14.90;;;10.38;;
77262;SDS011;66373;52.334;4.806;2023-06-22T05:47:54;13.27;;;9.52;;
77262;SDS011;66373;52.334;4.806;2023-06-22T05:50:21;17.42;;;9.63;;
77262;SDS011;66373;52.334;4.806;2023-06-22T05:52:48;11.65;;;8.60;;
77262;SDS011;66373;52.334;4.806;2023-06-22T05:55:15;13.45;;;9.13;;
77262;SDS011;66373;52.334;4.806;2023-06-22T05:57:45;16.73;;;9.75;;
77262;SDS011;66373;52.334;4.806;2023-06-22T06:00:13;12.77;;;9.00;;
77262;SDS011;66373;52.334;4.806;2023-06-22T06:02:41;14.38;;;8.82;;
77262;SDS011;66373;52.334;4.806;2023-06-22T06:05:09;11.60;;;7.88;;
77262;SDS011;66373;52.334;4.806;2023-06-22T06:07:39;10.80;;;7.55;;
77262;SDS011;66373;52.334;4.806;2023-06-22T06:10:06;14.07;;;8.25;;
77262;SDS011;66373;52.334;4.806;2023-06-22T06:12:34;13.20;;;7.72;;
77262;SDS011;66373;52.334;4.806;2023-06-22T06:15:03;14.82;;;7.40;;
77262;SDS011;66373;52.334;4.806;2023-06-22T06:17:32;12.32;;;7.72;;
77262;SDS011;66373;52.334;4.806;2023-06-22T06:19:59;16.65;;;9.13;;
77262;SDS011;66373;52.334;4.806;2023-06-22T06:22:28;12.68;;;7.70;;
77262;SDS011;66373;52.334;4.806;2023-06-22T06:24:55;12.63;;;7.47;;
77262;SDS011;66373;52.334;4.806;2023-06-22T06:27:22;10.30;;;7.95;;
77262;SDS011;66373;52.334;4.806;2023-06-22T06:29:54;10.80;;;6.95;;
77262;SDS011;66373;52.334;4.806;2023-06-22T06:32:23;9.57;;;7.45;;
77262;SDS011;66373;52.334;4.806;2023-06-22T06:34:51;11.45;;;7.55;;
77262;SDS011;66373;52.334;4.806;2023-06-22T06:37:18;9.80;;;7.32;;
77262;SDS011;66373;52.334;4.806;2023-06-22T06:39:47;14.02;;;7.85;;
77262;SDS011;66373;52.334;4.806;2023-06-22T06:42:15;12.77;;;7.50;;
77262;SDS011;66373;52.334;4.806;2023-06-22T06:44:42;12.63;;;7.70;;
77262;SDS011;66373;52.334;4.806;2023-06-22T06:47:09;11.52;;;7.65;;
77262;SDS011;66373;52.334;4.806;2023-06-22T06:49:37;13.23;;;7.85;;
77262;SDS011;66373;52.334;4.806;2023-06-22T06:52:05;9.43;;;7.28;;
77262;SDS011;66373;52.334;4.806;2023-06-22T06:54:32;8.93;;;6.45;;
77262;SDS011;66373;52.334;4.806;2023-06-22T06:57:00;13.07;;;7.82;;
77262;SDS011;66373;52.334;4.806;2023-06-22T06:59:28;17.75;;;8.98;;
77262;SDS011;66373;52.334;4.806;2023-06-22T07:01:56;14.50;;;8.00;;
77262;SDS011;66373;52.334;4.806;2023-06-22T07:04:24;16.20;;;8.70;;
77262;SDS011;66373;52.334;4.806;2023-06-22T07:06:53;19.17;;;8.05;;
77262;SDS011;66373;52.334;4.806;2023-06-22T07:09:20;11.65;;;7.68;;
77262;SDS011;66373;52.334;4.806;2023-06-22T07:11:47;15.68;;;8.40;;
77262;SDS011;66373;52.334;4.806;2023-06-22T07:14:14;10.85;;;7.85;;
77262;SDS011;66373;52.334;4.806;2023-06-22T07:16:41;10.63;;;7.55;;
77262;SDS011;66373;52.334;4.806;2023-06-22T07:19:08;10.23;;;6.95;;
77262;SDS011;66373;52.334;4.806;2023-06-22T07:21:35;11.68;;;6.50;;
77262;SDS011;66373;52.334;4.806;2023-06-22T07:24:04;13.80;;;7.90;;
77262;SDS011;66373;52.334;4.806;2023-06-22T07:26:31;9.55;;;7.22;;
77262;SDS011;66373;52.334;4.806;2023-06-22T07:28:59;12.20;;;7.60;;
77262;SDS011;66373;52.334;4.806;2023-06-22T07:31:26;11.85;;;7.43;;
77262;SDS011;66373;52.334;4.806;2023-06-22T07:33:56;10.90;;;7.80;;
77262;SDS011;66373;52.334;4.806;2023-06-22T07:36:23;12.32;;;7.80;;
77262;SDS011;66373;52.334;4.806;2023-06-22T07:38:50;14.65;;;7.70;;
77262;SDS011;66373;52.334;4.806;2023-06-22T07:41:18;13.95;;;7.07;;
77262;SDS011;66373;52.334;4.806;2023-06-22T07:43:46;10.38;;;7.55;;
77262;SDS011;66373;52.334;4.806;2023-06-22T07:46:13;11.80;;;7.25;;
77262;SDS011;66373;52.334;4.806;2023-06-22T07:48:40;7.85;;;6.57;;
77262;SDS011;66373;52.334;4.806;2023-06-22T07:51:09;10.50;;;7.65;;
77262;SDS011;66373;52.334;4.806;2023-06-22T07:53:38;13.05;;;8.18;;
77262;SDS011;66373;52.334;4.806;2023-06-22T07:56:05;14.57;;;8.25;;
77262;SDS011;66373;52.334;4.806;2023-06-22T07:58:34;12.75;;;7.65;;
77262;SDS011;66373;52.334;4.806;2023-06-22T08:01:01;10.48;;;7.57;;
77262;SDS011;66373;52.334;4.806;2023-06-22T08:03:29;11.13;;;7.70;;
77262;SDS011;66373;52.334;4.806;2023-06-22T08:05:56;11.40;;;7.43;;
77262;SDS011;66373;52.334;4.806;2023-06-22T08:08:23;9.35;;;7.35;;
77262;SDS011;66373;52.334;4.806;2023-06-22T08:10:50;12.63;;;8.23;;
77262;SDS011;66373;52.334;4.806;2023-06-22T08:13:17;12.60;;;6.75;;
77262;SDS011;66373;52.334;4.806;2023-06-22T08:15:46;10.68;;;7.00;;
77262;SDS011;66373;52.334;4.806;2023-06-22T08:18:13;10.98;;;7.10;;
77262;SDS011;66373;52.334;4.806;2023-06-22T08:20:40;11.35;;;7.43;;
77262;SDS011;66373;52.334;4.806;2023-06-22T08:23:07;9.30;;;6.82;;
77262;SDS011;66373;52.334;4.806;2023-06-22T08:25:34;10.15;;;7.05;;
77262;SDS011;66373;52.334;4.806;2023-06-22T08:28:02;13.10;;;6.95;;
77262;SDS011;66373;52.334;4.806;2023-06-22T08:30:29;7.97;;;5.60;;
77262;SDS011;66373;52.334;4.806;2023-06-22T08:32:58;9.77;;;6.28;;
77262;SDS011;66373;52.334;4.806;2023-06-22T08:35:25;10.43;;;7.05;;
77262;SDS011;66373;52.334;4.806;2023-06-22T08:37:52;12.40;;;6.93;;
77262;SDS011;66373;52.334;4.806;2023-06-22T08:40:20;5.68;;;4.88;;
77262;SDS011;66373;52.334;4.806;2023-06-22T08:42:48;11.85;;;5.85;;
77262;SDS011;66373;52.334;4.806;2023-06-22T08:45:15;9.70;;;6.03;;
77262;SDS011;66373;52.334;4.806;2023-06-22T08:47:42;8.35;;;6.03;;
77262;SDS011;66373;52.334;4.806;2023-06-22T08:50:11;9.57;;;6.72;;
77262;SDS011;66373;52.334;4.806;2023-06-22T08:52:41;9.45;;;6.05;;
77262;SDS011;66373;52.334;4.806;2023-06-22T08:55:08;9.90;;;5.88;;
77262;SDS011;66373;52.334;4.806;2023-06-22T08:57:36;10.88;;;7.13;;
77262;SDS011;66373;52.334;4.806;2023-06-22T09:00:05;13.85;;;6.50;;
77262;SDS011;66373;52.334;4.806;2023-06-22T09:02:41;9.23;;;6.60;;
77262;SDS011;66373;52.334;4.806;2023-06-22T09:05:08;9.68;;;6.68;;
77262;SDS011;66373;52.334;4.806;2023-06-22T09:07:37;7.50;;;6.40;;
77262;SDS011;66373;52.334;4.806;2023-06-22T09:10:05;9.18;;;6.40;;
77262;SDS011;66373;52.334;4.806;2023-06-22T09:12:33;9.48;;;6.60;;
77262;SDS011;66373;52.334;4.806;2023-06-22T09:15:03;12.43;;;7.22;;
77262;SDS011;66373;52.334;4.806;2023-06-22T09:17:32;9.40;;;6.85;;
77262;SDS011;66373;52.334;4.806;2023-06-22T09:20:01;12.23;;;6.63;;
77262;SDS011;66373;52.334;4.806;2023-06-22T09:22:32;10.60;;;6.85;;
77262;SDS011;66373;52.334;4.806;2023-06-22T09:24:59;12.25;;;6.82;;
77262;SDS011;66373;52.334;4.806;2023-06-22T09:27:26;11.45;;;6.60;;
77262;SDS011;66373;52.334;4.806;2023-06-22T09:29:54;9.85;;;7.45;;
77262;SDS011;66373;52.334;4.806;2023-06-22T09:32:23;9.80;;;6.90;;
77262;SDS011;66373;52.334;4.806;2023-06-22T09:34:50;12.43;;;7.18;;
77262;SDS011;66373;52.334;4.806;2023-06-22T09:37:18;9.52;;;6.75;;
77262;SDS011;66373;52.334;4.806;2023-06-22T09:39:46;10.07;;;6.80;;
77262;SDS011;66373;52.334;4.806;2023-06-22T09:42:14;14.30;;;7.20;;
77262;SDS011;66373;52.334;4.806;2023-06-22T09:44:41;11.75;;;7.20;;
77262;SDS011;66373;52.334;4.806;2023-06-22T09:47:08;14.48;;;6.70;;
77262;SDS011;66373;52.334;4.806;2023-06-22T09:49:35;12.82;;;7.88;;
77262;SDS011;66373;52.334;4.806;2023-06-22T09:52:02;10.52;;;7.22;;
77262;SDS011;66373;52.334;4.806;2023-06-22T09:54:29;9.63;;;7.28;;
77262;SDS011;66373;52.334;4.806;2023-06-22T09:56:58;13.05;;;8.15;;
77262;SDS011;66373;52.334;4.806;2023-06-22T09:59:25;10.95;;;7.60;;
77262;SDS011;66373;52.334;4.806;2023-06-22T10:01:52;12.10;;;8.32;;
77262;SDS011;66373;52.334;4.806;2023-06-22T10:04:20;9.27;;;7.57;;
77262;SDS011;66373;52.334;4.806;2023-06-22T10:06:47;14.68;;;7.13;;
77262;SDS011;66373;52.334;4.806;2023-06-22T10:09:14;10.77;;;7.05;;
77262;SDS011;66373;52.334;4.806;2023-06-22T10:11:41;12.18;;;8.05;;
77262;SDS011;66373;52.334;4.806;2023-06-22T10:14:10;13.40;;;7.53;;
77262;SDS011;66373;52.334;4.806;2023-06-22T10:16:37;8.75;;;6.45;;
77262;SDS011;66373;52.334;4.806;2023-06-22T10:19:04;10.85;;;7.22;;
77262;SDS011;66373;52.334;4.806;2023-06-22T10:21:31;10.82;;;6.40;;
77262;SDS011;66373;52.334;4.806;2023-06-22T10:23:59;10.68;;;7.05;;
77262;SDS011;66373;52.334;4.806;2023-06-22T10:26:31;10.43;;;7.28;;
77262;SDS011;66373;52.334;4.806;2023-06-22T10:28:58;15.27;;;7.43;;
77262;SDS011;66373;52.334;4.806;2023-06-22T10:31:27;11.35;;;7.65;;
77262;SDS011;66373;52.334;4.806;2023-06-22T10:33:55;9.77;;;6.95;;
77262;SDS011;66373;52.334;4.806;2023-06-22T10:36:25;10.95;;;7.05;;
77262;SDS011;66373;52.334;4.806;2023-06-22T10:38:55;12.68;;;7.78;;
77262;SDS011;66373;52.334;4.806;2023-06-22T10:41:27;10.38;;;6.13;;
77262;SDS011;66373;52.334;4.806;2023-06-22T10:43:56;11.50;;;7.60;;
77262;SDS011;66373;52.334;4.806;2023-06-22T10:46:23;9.75;;;6.57;;
77262;SDS011;66373;52.334;4.806;2023-06-22T10:48:54;11.18;;;7.22;;
77262;SDS011;66373;52.334;4.806;2023-06-22T10:51:23;9.80;;;7.32;;
77262;SDS011;66373;52.334;4.806;2023-06-22T10:53:51;10.65;;;7.45;;
77262;SDS011;66373;52.334;4.806;2023-06-22T10:56:18;10.88;;;7.47;;
77262;SDS011;66373;52.334;4.806;2023-06-22T10:58:45;11.18;;;7.68;;
77262;SDS011;66373;52.334;4.806;2023-06-22T11:01:12;11.48;;;7.50;;
77262;SDS011;66373;52.334;4.806;2023-06-22T11:03:41;11.07;;;7.20;;
77262;SDS011;66373;52.334;4.806;2023-06-22T11:06:13;11.60;;;6.70;;
77262;SDS011;66373;52.334;4.806;2023-06-22T11:08:43;10.25;;;6.97;;
77262;SDS011;66373;52.334;4.806;2023-06-22T11:11:11;9.23;;;6.20;;
77262;SDS011;66373;52.334;4.806;2023-06-22T11:13:38;10.70;;;7.05;;
77262;SDS011;66373;52.334;4.806;2023-06-22T11:16:05;15.23;;;7.97;;
77262;SDS011;66373;52.334;4.806;2023-06-22T11:18:32;10.52;;;7.28;;
77262;SDS011;66373;52.334;4.806;2023-06-22T11:20:59;8.05;;;7.00;;
77262;SDS011;66373;52.334;4.806;2023-06-22T11:23:30;13.18;;;7.57;;
77262;SDS011;66373;52.334;4.806;2023-06-22T11:26:00;11.57;;;7.60;;
77262;SDS011;66373;52.334;4.806;2023-06-22T11:28:27;9.52;;;7.20;;
77262;SDS011;66373;52.334;4.806;2023-06-22T11:30:55;10.77;;;7.47;;
77262;SDS011;66373;52.334;4.806;2023-06-22T11:33:22;8.85;;;6.63;;
77262;SDS011;66373;52.334;4.806;2023-06-22T11:35:50;8.73;;;6.57;;
77262;SDS011;66373;52.334;4.806;2023-06-22T11:38:17;9.25;;;6.47;;
77262;SDS011;66373;52.334;4.806;2023-06-22T11:40:46;11.80;;;6.95;;
77262;SDS011;66373;52.334;4.806;2023-06-22T11:43:13;10.30;;;6.10;;
77262;SDS011;66373;52.334;4.806;2023-06-22T11:45:41;9.80;;;7.05;;
77262;SDS011;66373;52.334;4.806;2023-06-22T11:48:12;10.13;;;7.28;;
77262;SDS011;66373;52.334;4.806;2023-06-22T11:50:39;12.10;;;7.07;;
77262;SDS011;66373;52.334;4.806;2023-06-22T11:53:06;9.32;;;6.90;;
77262;SDS011;66373;52.334;4.806;2023-06-22T11:55:33;9.93;;;7.38;;
77262;SDS011;66373;52.334;4.806;2023-06-22T11:58:02;13.93;;;5.85;;
77262;SDS011;66373;52.334;4.806;2023-06-22T12:00:31;8.90;;;6.10;;
77262;SDS011;66373;52.334;4.806;2023-06-22T12:02:58;10.38;;;7.07;;
77262;SDS011;66373;52.334;4.806;2023-06-22T12:05:25;8.90;;;6.30;;
77262;SDS011;66373;52.334;4.806;2023-06-22T12:07:53;8.95;;;6.97;;
77262;SDS011;66373;52.334;4.806;2023-06-22T12:10:22;10.18;;;6.07;;
77262;SDS011;66373;52.334;4.806;2023-06-22T12:12:50;10.43;;;6.88;;
77262;SDS011;66373;52.334;4.806;2023-06-22T12:15:18;13.57;;;7.80;;
77262;SDS011;66373;52.334;4.806;2023-06-22T12:17:45;8.85;;;6.50;;
77262;SDS011;66373;52.334;4.806;2023-06-22T12:20:13;8.82;;;6.20;;
77262;SDS011;66373;52.334;4.806;2023-06-22T12:22:41;10.63;;;6.40;;
77262;SDS011;66373;52.334;4.806;2023-06-22T12:25:08;9.82;;;6.43;;
77262;SDS011;66373;52.334;4.806;2023-06-22T12:27:36;9.48;;;6.32;;
77262;SDS011;66373;52.334;4.806;2023-06-22T12:30:03;10.82;;;7.20;;
77262;SDS011;66373;52.334;4.806;2023-06-22T12:32:32;8.02;;;6.72;;
77262;SDS011;66373;52.334;4.806;2023-06-22T12:34:59;10.05;;;7.10;;
77262;SDS011;66373;52.334;4.806;2023-06-22T12:37:27;10.82;;;6.95;;
77262;SDS011;66373;52.334;4.806;2023-06-22T12:39:57;9.35;;;7.10;;
77262;SDS011;66373;52.334;4.806;2023-06-22T12:42:24;10.90;;;6.78;;
77262;SDS011;66373;52.334;4.806;2023-06-22T12:44:56;7.93;;;5.85;;
77262;SDS011;66373;52.334;4.806;2023-06-22T12:47:24;8.95;;;6.63;;
77262;SDS011;66373;52.334;4.806;2023-06-22T12:49:52;12.13;;;7.25;;
77262;SDS011;66373;52.334;4.806;2023-06-22T12:52:20;10.90;;;6.95;;
77262;SDS011;66373;52.334;4.806;2023-06-22T12:54:48;13.90;;;6.88;;
77262;SDS011;66373;52.334;4.806;2023-06-22T12:57:15;11.25;;;6.22;;
77262;SDS011;66373;52.334;4.806;2023-06-22T12:59:43;9.35;;;6.00;;
77262;SDS011;66373;52.334;4.806;2023-06-22T13:02:10;10.07;;;6.70;;
77262;SDS011;66373;52.334;4.806;2023-06-22T13:04:39;10.40;;;5.82;;
77262;SDS011;66373;52.334;4.806;2023-06-22T13:07:08;9.52;;;6.30;;
77262;SDS011;66373;52.334;4.806;2023-06-22T13:09:35;8.32;;;5.47;;
77262;SDS011;66373;52.334;4.806;2023-06-22T13:12:03;8.90;;;5.50;;
77262;SDS011;66373;52.334;4.806;2023-06-22T13:14:30;9.85;;;5.85;;
77262;SDS011;66373;52.334;4.806;2023-06-22T13:16:58;6.82;;;5.13;;
77262;SDS011;66373;52.334;4.806;2023-06-22T13:19:25;6.82;;;5.57;;
77262;SDS011;66373;52.334;4.806;2023-06-22T13:21:54;8.57;;;6.18;;
77262;SDS011;66373;52.334;4.806;2023-06-22T13:24:23;9.52;;;5.40;;
77262;SDS011;66373;52.334;4.806;2023-06-22T13:26:50;6.60;;;4.60;;
77262;SDS011;66373;52.334;4.806;2023-06-22T13:29:17;8.15;;;5.38;;
77262;SDS011;66373;52.334;4.806;2023-06-22T13:31:44;7.97;;;5.18;;
77262;SDS011;66373;52.334;4.806;2023-06-22T13:34:11;7.85;;;5.65;;
77262;SDS011;66373;52.334;4.806;2023-06-22T13:36:38;8.57;;;5.93;;
77262;SDS011;66373;52.334;4.806;2023-06-22T13:39:08;11.15;;;6.32;;
77262;SDS011;66373;52.334;4.806;2023-06-22T13:41:37;7.00;;;5.47;;
77262;SDS011;66373;52.334;4.806;2023-06-22T13:44:04;7.07;;;5.63;;
77262;SDS011;66373;52.334;4.806;2023-06-22T13:46:31;10.82;;;6.20;;
77262;SDS011;66373;52.334;4.806;2023-06-22T13:48:58;7.88;;;5.95;;
77262;SDS011;66373;52.334;4.806;2023-06-22T13:51:25;6.63;;;5.10;;
77262;SDS011;66373;52.334;4.806;2023-06-22T13:53:52;6.28;;;4.63;;
77262;SDS011;66373;52.334;4.806;2023-06-22T13:56:19;9.23;;;6.15;;
77262;SDS011;66373;52.334;4.806;2023-06-22T13:58:48;8.30;;;6.40;;
77262;SDS011;66373;52.334;4.806;2023-06-22T14:01:15;10.20;;;6.88;;
77262;SDS011;66373;52.334;4.806;2023-06-22T14:03:42;8.65;;;6.78;;
77262;SDS011;66373;52.334;4.806;2023-06-22T14:06:12;12.20;;;7.32;;
77262;SDS011;66373;52.334;4.806;2023-06-22T14:08:40;8.30;;;6.28;;
77262;SDS011;66373;52.334;4.806;2023-06-22T14:11:07;8.15;;;6.22;;
77262;SDS011;66373;52.334;4.806;2023-06-22T14:13:34;9.65;;;6.60;;
77262;SDS011;66373;52.334;4.806;2023-06-22T14:16:03;9.00;;;6.20;;
77262;SDS011;66373;52.334;4.806;2023-06-22T14:18:31;8.15;;;6.72;;
77262;SDS011;66373;52.334;4.806;2023-06-22T14:20:58;11.40;;;6.32;;
77262;SDS011;66373;52.334;4.806;2023-06-22T14:23:26;10.43;;;5.78;;
77262;SDS011;66373;52.334;4.806;2023-06-22T14:25:54;8.32;;;4.90;;
77262;SDS011;66373;52.334;4.806;2023-06-22T14:28:21;6.25;;;5.25;;
77262;SDS011;66373;52.334;4.806;2023-06-22T14:30:49;6.97;;;4.93;;
77262;SDS011;66373;52.334;4.806;2023-06-22T14:33:17;6.93;;;4.97;;
77262;SDS011;66373;52.334;4.806;2023-06-22T14:35:44;6.40;;;5.18;;
77262;SDS011;66373;52.334;4.806;2023-06-22T14:38:11;6.50;;;5.00;;
77262;SDS011;66373;52.334;4.806;2023-06-22T14:40:38;5.40;;;4.75;;